Orbital elements of SAUDISAT 1C
| Launched | 19 December 2002 |
| Flight ended | – |
| Launch site | Tyuratam Missile and Space Center, Kazakhstan (Also known as Baikonur Cosmodrome) |
| Owner | Saudi Arabia |
| NORAD ID | 27607 |
| Alternative names |
SO-50 |
| Date fetched |
Epoch osculation |
Inc. [°] |
Ecc. | RA asc node [hr] |
Arg Peri. [°] |
Mean anom [°] |
Mean motion [rev/day] |
Abs. mag |
| Date fetched |
Epoch osculation |
Inc. [°] |
Ecc. | RA asc node [hr] |
Arg Peri. [°] |
Mean anom [°] |
Mean motion [rev/day] |
Abs. mag |
| 2026 May 08 17:57 | 2026 May 07 18:17:24 | 64.5523 | 0.00756 | 16.9366 | 269.8415 | 89.4024 | 14.82961 | – |
| 2026 May 07 17:58 | 2026 May 07 02:06:19 | 64.5522 | 0.00756 | 17.0757 | 269.9682 | 89.4024 | 14.82961 | – |
| 2026 May 06 17:57 | 2026 May 06 08:18:08 | 64.5522 | 0.00756 | 17.2287 | 270.0952 | 89.4024 | 14.82961 | – |
| 2026 May 05 17:57 | 2026 May 05 09:38:37 | 64.5521 | 0.00756 | 17.4234 | 270.2617 | 89.4024 | 14.82961 | – |
| 2026 May 04 17:57 | 2026 May 04 10:59:06 | 64.5520 | 0.00756 | 17.6181 | 270.4350 | 89.4024 | 14.82961 | – |
| 2026 May 03 17:57 | 2026 May 03 09:05:21 | 64.5518 | 0.00756 | 17.8406 | 270.6287 | 89.4024 | 14.82961 | – |
| 2026 May 02 17:57 | 2026 May 02 10:25:50 | 64.5517 | 0.00756 | 18.0353 | 270.7925 | 89.4024 | 14.82961 | – |
| 2026 May 01 17:56 | 2026 May 01 10:09:11 | 64.5517 | 0.00756 | 18.2440 | 270.9681 | 89.4024 | 14.82961 | – |
| 2026 Apr 30 17:56 | 2026 Apr 29 14:27:14 | 64.5517 | 0.00756 | 18.6195 | 271.2999 | 89.4024 | 14.82961 | – |
| 2026 Apr 29 17:57 | 2026 Apr 29 12:50:07 | 64.5516 | 0.00756 | 18.6334 | 271.3110 | 89.4024 | 14.82961 | – |
| 2026 Apr 28 17:56 | 2026 Apr 28 10:56:22 | 64.5515 | 0.00756 | 18.8559 | 271.5100 | 89.4024 | 14.82961 | – |
| 2026 Apr 27 17:58 | 2026 Apr 26 20:05:43 | 64.5515 | 0.00756 | 19.1897 | 271.8075 | 89.4024 | 14.82961 | – |
| 2026 Apr 26 17:58 | 2026 Apr 25 19:49:04 | 64.5516 | 0.00756 | 19.3984 | 271.9918 | 89.4024 | 14.82961 | – |
| 2026 Apr 25 17:58 | 2026 Apr 25 11:43:31 | 64.5516 | 0.00756 | 19.4679 | 272.0530 | 89.4024 | 14.82961 | – |
| 2026 Apr 24 17:59 | 2026 Apr 23 22:29:58 | 64.5516 | 0.00756 | 19.7878 | 272.3401 | 89.4024 | 14.82961 | – |
| 2026 Apr 23 17:57 | 2026 Apr 22 22:13:19 | 64.5516 | 0.00756 | 19.9964 | 272.5223 | 89.4024 | 14.82961 | – |
| 2026 Apr 22 17:57 | 2026 Apr 21 21:56:39 | 64.5517 | 0.00756 | 20.2050 | 272.7042 | 89.4024 | 14.82961 | – |
| 2026 Apr 21 17:57 | 2026 Apr 21 05:45:32 | 64.5518 | 0.00756 | 20.3441 | 272.8287 | 89.4024 | 14.82961 | – |
| 2026 Apr 20 17:57 | 2026 Apr 20 07:05:59 | 64.5519 | 0.00756 | 20.5388 | 273.0036 | 89.4024 | 14.82961 | – |
| 2026 Apr 19 17:58 | 2026 Apr 19 13:17:46 | 64.5519 | 0.00756 | 20.6918 | 273.1355 | 89.4024 | 14.82961 | – |
| 2026 Apr 18 17:56 | 2026 Apr 18 00:04:12 | 64.5521 | 0.00755 | 21.0117 | 273.4180 | 89.4024 | 14.82961 | – |
| 2026 Apr 16 17:57 | 2026 Apr 15 23:30:51 | 64.5524 | 0.00755 | 21.4289 | 273.7912 | 89.4024 | 14.82961 | – |
| 2026 Apr 14 17:57 | 2026 Apr 14 08:40:11 | 64.5526 | 0.00755 | 21.7627 | 274.0911 | 89.4024 | 14.82961 | – |
| 2026 Apr 13 17:57 | 2026 Apr 13 00:17:57 | 64.5530 | 0.00755 | 22.0409 | 274.3272 | 89.4024 | 14.82961 | – |
| 2026 Apr 12 17:57 | 2026 Apr 12 01:38:23 | 64.5531 | 0.00755 | 22.2356 | 274.5017 | 89.4024 | 14.82961 | – |
| 2026 Apr 11 17:57 | 2026 Apr 11 01:21:42 | 64.5532 | 0.00755 | 22.4442 | 274.6900 | 89.4024 | 14.82961 | – |